Time,TemperatureF,DewpointF,PressureIn,WindDirection,WindDirectionDegrees,WindSpeedMPH,WindSpeedGustMPH,Humidity,HourlyPrecipIn,Conditions,Clouds,dailyrainin,SoftwareType,DateUTC
2013-02-24 09:16:00,28.8,22.2,29.92,ESE,118,0.0,0.0,76,-99.99,,,-99.99,VWS V14.01,2013-02-24 14:16:00,
2013-02-24 09:21:00,28.9,22.2,29.92,SSE,148,0.0,0.0,76,-99.99,,,-99.99,VWS V14.01,2013-02-24 14:21:00,
2013-02-24 09:26:00,28.9,22.2,29.92,SSE,156,0.0,0.0,76,-99.99,,,-99.99,VWS V14.01,2013-02-24 14:26:00,
2013-02-24 09:31:00,28.9,22.4,29.93,WSW,250,0.0,1.7,76,-99.99,,,-99.99,VWS V14.01,2013-02-24 14:31:00,
2013-02-24 09:36:00,28.8,22.3,29.93,West,277,0.0,5.1,76,-99.99,,,-99.99,VWS V14.01,2013-02-24 14:36:00,
2013-02-24 09:41:00,28.8,22.4,29.94,NNW,328,0.0,0.0,76,-99.99,,,-99.99,VWS V14.01,2013-02-24 14:41:00,
2013-02-24 09:46:00,28.7,22.3,29.94,NNW,342,0.0,0.0,77,-99.99,,,-99.99,VWS V14.01,2013-02-24 14:46:00,
2013-02-24 09:51:00,28.8,22.4,29.93,NNW,342,0.0,0.0,76,-99.99,,,-99.99,VWS V14.01,2013-02-24 14:51:00,
2013-02-24 09:56:00,28.7,22.5,29.93,North,10,0.0,0.0,77,-99.99,,,-99.99,VWS V14.01,2013-02-24 14:56:00,
2013-02-24 10:01:00,28.8,22.2,29.94,NW,308,4.3,9.0,76,-99.99,,,-99.99,VWS V14.01,2013-02-24 15:01:00,
2013-02-24 10:06:00,28.7,22.2,29.93,WSW,255,0.0,0.0,76,-99.99,,,-99.99,VWS V14.01,2013-02-24 15:06:00,
2013-02-24 10:11:00,28.9,22.4,29.93,West,264,0.0,0.0,76,-99.99,,,-99.99,VWS V14.01,2013-02-24 15:11:00,
2013-02-24 10:16:00,28.6,22.1,29.92,NW,308,0.0,0.0,76,-99.99,,,-99.99,VWS V14.01,2013-02-24 15:16:00,
2013-02-24 10:21:00,28.6,22.3,29.93,South,172,0.0,0.0,77,-99.99,,,-99.99,VWS V14.01,2013-02-24 15:21:00,
2013-02-24 10:26:00,28.5,22.3,29.93,WNW,301,0.0,8.8,77,-99.99,,,-99.99,VWS V14.01,2013-02-24 15:26:00,
2013-02-24 10:31:00,28.5,22.5,29.93,NNW,346,0.0,4.9,78,-99.99,,,-99.99,VWS V14.01,2013-02-24 15:31:00,
2013-02-24 10:36:00,28.5,22.9,29.93,West,266,3.1,4.8,79,-99.99,,,-99.99,VWS V14.01,2013-02-24 15:36:00,
2013-02-24 10:41:00,28.4,22.7,29.93,ESE,110,0.0,0.0,79,-99.99,,,-99.99,VWS V14.01,2013-02-24 15:41:00,
2013-02-24 10:46:00,28.5,23.0,29.93,ESE,110,0.0,0.0,80,-99.99,,,-99.99,VWS V14.01,2013-02-24 15:46:00,
2013-02-24 10:51:00,28.4,22.9,29.93,SSW,204,0.0,0.0,79,-99.99,,,-99.99,VWS V14.01,2013-02-24 15:51:00,
2013-02-24 10:56:00,28.4,22.9,29.93,SSW,195,0.0,1.7,80,-99.99,,,-99.99,VWS V14.01,2013-02-24 15:56:00,
2013-02-24 11:01:00,28.4,23.1,29.93,West,270,0.0,0.0,80,-99.99,,,-99.99,VWS V14.01,2013-02-24 16:01:00,
2013-02-24 11:06:00,28.5,23.2,29.93,SW,224,0.0,0.0,80,-99.99,,,-99.99,VWS V14.01,2013-02-24 16:06:00,
2013-02-24 11:11:00,28.7,23.4,29.93,SW,224,0.0,0.0,80,-99.99,,,-99.99,VWS V14.01,2013-02-24 16:11:00,
2013-02-24 11:16:00,28.8,23.5,29.93,SW,224,0.0,0.0,80,-99.99,,,-99.99,VWS V14.01,2013-02-24 16:16:00,
2013-02-24 11:21:00,28.6,23.1,29.93,SW,236,0.0,0.0,80,-99.99,,,-99.99,VWS V14.01,2013-02-24 16:21:00,
2013-02-24 11:26:00,28.7,23.3,29.93,SW,231,0.0,0.0,80,-99.99,,,-99.99,VWS V14.01,2013-02-24 16:26:00,
2013-02-24 11:31:00,28.7,23.2,29.93,South,174,0.0,0.0,80,-99.99,,,-99.99,VWS V14.01,2013-02-24 16:31:00,
2013-02-24 11:36:00,28.7,23.2,29.93,WNW,301,4.7,8.1,80,-99.99,,,-99.99,VWS V14.01,2013-02-24 16:36:00,
2013-02-24 11:41:00,28.6,22.7,29.93,WNW,302,4.3,8.1,78,-99.99,,,-99.99,VWS V14.01,2013-02-24 16:41:00,
2013-02-24 11:46:00,28.5,22.7,29.94,NNE,21,5.2,9.6,78,-99.99,,,-99.99,VWS V14.01,2013-02-24 16:46:00,
2013-02-24 11:51:00,28.5,22.8,29.94,WSW,249,0.0,0.0,79,-99.99,,,-99.99,VWS V14.01,2013-02-24 16:51:00,
2013-02-24 11:56:00,28.5,22.6,29.93,WNW,298,7.3,9.0,78,-99.99,,,-99.99,VWS V14.01,2013-02-24 16:56:00,
2013-02-24 12:01:00,28.7,22.8,29.93,West,280,5.0,8.0,78,-99.99,,,-99.99,VWS V14.01,2013-02-24 17:01:00,
2013-02-24 12:06:00,28.7,22.7,29.93,WSW,238,0.0,4.5,78,-99.99,,,-99.99,VWS V14.01,2013-02-24 17:06:00,
2013-02-24 12:11:00,28.8,22.8,29.93,West,262,0.0,0.0,78,-99.99,,,-99.99,VWS V14.01,2013-02-24 17:11:00,
2013-02-24 12:16:00,28.7,22.8,29.93,WSW,246,0.0,5.1,78,-99.99,,,-99.99,VWS V14.01,2013-02-24 17:16:00,
2013-02-24 12:21:00,28.5,22.6,29.93,SW,231,3.0,9.3,78,-99.99,,,-99.99,VWS V14.01,2013-02-24 17:21:00,
2013-02-24 12:26:00,28.4,22.5,29.93,WNW,298,5.4,8.1,78,-99.99,,,-99.99,VWS V14.01,2013-02-24 17:26:00,
2013-02-24 12:31:00,28.4,22.5,29.93,WNW,295,7.1,8.1,78,-99.99,,,-99.99,VWS V14.01,2013-02-24 17:31:00,
2013-02-24 12:36:00,28.7,23.0,29.93,WNW,283,0.0,0.0,79,-99.99,,,-99.99,VWS V14.01,2013-02-24 17:36:00,
2013-02-24 12:41:00,28.5,22.5,29.93,NNW,328,4.7,8.0,78,-99.99,,,-99.99,VWS V14.01,2013-02-24 17:41:00,
2013-02-24 12:46:00,28.6,22.9,29.94,WNW,300,0.0,0.0,79,-99.99,,,-99.99,VWS V14.01,2013-02-24 17:46:00,
2013-02-24 12:51:00,28.5,22.8,29.94,SW,231,0.0,0.0,79,-99.99,,,-99.99,VWS V14.01,2013-02-24 17:51:00,
2013-02-24 12:56:00,28.4,22.8,29.94,WSW,248,0.0,2.9,79,-99.99,,,-99.99,VWS V14.01,2013-02-24 17:56:00,
2013-02-24 13:01:00,28.3,23.2,29.94,WSW,248,4.2,6.8,81,-99.99,,,-99.99,VWS V14.01,2013-02-24 18:01:00,
2013-02-24 13:06:00,28.1,23.4,29.94,WNW,290,4.1,4.3,82,-99.99,,,-99.99,VWS V14.01,2013-02-24 18:06:00,
2013-02-24 13:11:00,28.0,23.9,29.94,SW,224,0.0,0.0,84,-99.99,,,-99.99,VWS V14.01,2013-02-24 18:11:00,
2013-02-24 13:16:00,28.0,23.9,29.94,WNW,294,0.0,0.0,84,-99.99,,,-99.99,VWS V14.01,2013-02-24 18:16:00,
2013-02-24 13:21:00,28.0,23.9,29.94,NW,325,0.0,0.0,84,-99.99,,,-99.99,VWS V14.01,2013-02-24 18:21:00,
2013-02-24 13:26:00,28.0,24.0,29.94,SW,233,0.0,0.0,85,-99.99,,,-99.99,VWS V14.01,2013-02-24 18:26:00,
2013-02-24 13:31:00,27.7,23.9,29.95,NW,304,9.4,10.7,85,-99.99,,,-99.99,VWS V14.01,2013-02-24 18:31:00,
2013-02-24 13:36:00,27.1,23.4,29.95,West,262,7.0,8.4,86,-99.99,,,-99.99,VWS V14.01,2013-02-24 18:36:00,
2013-02-24 13:41:00,26.9,23.9,29.95,WNW,285,0.0,0.0,88,-99.99,,,-99.99,VWS V14.01,2013-02-24 18:41:00,
2013-02-24 13:46:00,26.6,23.8,29.95,NW,318,0.0,4.8,89,-99.99,,,-99.99,VWS V14.01,2013-02-24 18:46:00,
2013-02-24 13:51:00,26.6,23.8,29.96,NW,315,0.0,0.0,89,-99.99,,,-99.99,VWS V14.01,2013-02-24 18:51:00,
2013-02-24 13:56:00,26.4,23.4,29.96,West,262,0.0,0.0,88,-99.99,,,-99.99,VWS V14.01,2013-02-24 18:56:00,
2013-02-24 14:01:00,26.4,23.4,29.96,WNW,292,0.0,0.0,88,-99.99,,,-99.99,VWS V14.01,2013-02-24 19:01:00,
2013-02-24 14:06:00,26.6,23.7,29.96,WNW,292,0.0,0.0,89,-99.99,,,-99.99,VWS V14.01,2013-02-24 19:06:00,
2013-02-24 14:11:00,26.6,23.1,29.96,SE,146,4.3,4.3,87,-99.99,,,-99.99,VWS V14.01,2013-02-24 19:11:00,
2013-02-24 14:16:00,26.8,23.3,29.96,West,269,0.0,0.0,86,-99.99,,,-99.99,VWS V14.01,2013-02-24 19:16:00,
2013-02-24 14:21:00,26.9,22.9,29.96,WSW,238,0.0,4.8,84,-99.99,,,-99.99,VWS V14.01,2013-02-24 19:21:00,
2013-02-24 14:26:00,27.2,23.3,29.96,WSW,238,0.0,0.0,85,-99.99,,,-99.99,VWS V14.01,2013-02-24 19:26:00,
2013-02-24 14:31:00,27.4,23.5,29.96,WSW,238,0.0,0.0,85,-99.99,,,-99.99,VWS V14.01,2013-02-24 19:31:00,
2013-02-24 14:36:00,27.5,23.2,29.96,NW,315,3.2,4.7,84,-99.99,,,-99.99,VWS V14.01,2013-02-24 19:36:00,
2013-02-24 14:41:00,27.4,22.8,29.96,West,270,4.3,6.6,83,-99.99,,,-99.99,VWS V14.01,2013-02-24 19:41:00,
2013-02-24 14:46:00,27.5,22.9,29.97,NNW,329,0.0,3.5,82,-99.99,,,-99.99,VWS V14.01,2013-02-24 19:46:00,
2013-02-24 14:51:00,27.6,22.3,29.96,North,359,0.0,6.6,80,-99.99,,,-99.99,VWS V14.01,2013-02-24 19:51:00,
2013-02-24 14:56:00,27.6,22.4,29.97,West,266,3.4,6.5,80,-99.99,,,-99.99,VWS V14.01,2013-02-24 19:56:00,
2013-02-24 15:01:00,27.8,22.9,29.97,West,276,0.0,0.0,82,-99.99,,,-99.99,VWS V14.01,2013-02-24 20:01:00,
2013-02-24 15:06:00,27.5,22.9,29.97,WNW,292,6.2,8.6,82,-99.99,,,-99.99,VWS V14.01,2013-02-24 20:06:00,
2013-02-24 15:11:00,27.4,22.9,29.97,North,1,0.0,0.0,83,-99.99,,,-99.99,VWS V14.01,2013-02-24 20:11:00,
2013-02-24 15:16:00,27.4,23.2,29.97,North,1,0.0,0.0,84,-99.99,,,-99.99,VWS V14.01,2013-02-24 20:16:00,
2013-02-24 15:21:00,27.5,23.6,29.98,WNW,290,8.3,8.3,85,-99.99,,,-99.99,VWS V14.01,2013-02-24 20:21:00,
2013-02-24 15:26:00,27.3,23.1,29.98,West,281,0.0,0.0,84,-99.99,,,-99.99,VWS V14.01,2013-02-24 20:26:00,
2013-02-24 15:30:00,27.1,23.0,29.98,West,269,0.0,3.4,84,-99.99,,,-99.99,VWS V14.01,2013-02-24 20:30:00,
2013-02-24 15:35:00,27.1,23.4,29.99,NNW,340,0.0,3.4,86,-99.99,,,-99.99,VWS V14.01,2013-02-24 20:35:00,
2013-02-24 15:40:00,27.2,23.8,29.99,NW,326,0.0,0.0,87,-99.99,,,-99.99,VWS V14.01,2013-02-24 20:40:00,
2013-02-24 15:45:00,27.0,22.7,29.99,SW,219,6.8,10.4,84,-99.99,,,-99.99,VWS V14.01,2013-02-24 20:45:00,
2013-02-24 15:50:00,27.1,22.5,29.99,SW,214,0.0,2.6,82,-99.99,,,-99.99,VWS V14.01,2013-02-24 20:50:00,
2013-02-24 15:55:00,27.1,22.3,29.99,NNW,335,4.8,9.8,82,-99.99,,,-99.99,VWS V14.01,2013-02-24 20:55:00,
2013-02-24 16:00:00,27.2,22.7,30.00,WNW,291,0.0,0.0,83,-99.99,,,-99.99,VWS V14.01,2013-02-24 21:00:00,
2013-02-24 16:05:00,27.4,22.7,30.00,NW,319,0.0,5.0,82,-99.99,,,-99.99,VWS V14.01,2013-02-24 21:05:00,
2013-02-24 16:10:00,27.4,22.4,29.99,NW,309,0.0,0.0,81,-99.99,,,-99.99,VWS V14.01,2013-02-24 21:10:00,
2013-02-24 16:15:00,27.4,22.0,30.00,NW,318,0.0,5.1,80,-99.99,,,-99.99,VWS V14.01,2013-02-24 21:15:00,
2013-02-24 16:20:00,27.3,21.5,30.00,NW,311,0.0,3.4,79,-99.99,,,-99.99,VWS V14.01,2013-02-24 21:20:00,
2013-02-24 16:25:00,27.4,21.6,30.00,NW,322,5.2,5.7,79,-99.99,,,-99.99,VWS V14.01,2013-02-24 21:25:00,
2013-02-24 16:30:00,27.5,21.7,30.00,NW,322,0.0,0.0,79,-99.99,,,-99.99,VWS V14.01,2013-02-24 21:30:00,
2013-02-24 16:35:00,27.6,22.0,30.01,West,270,0.0,4.7,79,-99.99,,,-99.99,VWS V14.01,2013-02-24 21:35:00,
2013-02-24 16:40:00,27.6,21.2,30.00,WNW,301,0.0,4.2,76,-99.99,,,-99.99,VWS V14.01,2013-02-24 21:40:00,
2013-02-24 16:45:00,27.7,21.1,30.01,West,274,6.2,6.3,76,-99.99,,,-99.99,VWS V14.01,2013-02-24 21:45:00,
2013-02-24 16:50:00,28.0,21.2,30.01,West,274,0.0,0.0,75,-99.99,,,-99.99,VWS V14.01,2013-02-24 21:50:00,
2013-02-24 16:55:00,28.0,21.0,30.01,West,270,5.3,7.3,75,-99.99,,,-99.99,VWS V14.01,2013-02-24 21:55:00,
2013-02-24 17:00:00,28.0,20.9,30.01,WNW,287,0.0,0.0,74,-99.99,,,-99.99,VWS V14.01,2013-02-24 22:00:00,
2013-02-24 17:05:00,28.0,21.0,30.02,NW,323,0.0,0.0,75,-99.99,,,-99.99,VWS V14.01,2013-02-24 22:05:00,
2013-02-24 17:10:00,27.9,20.4,30.02,North,357,0.0,0.0,73,-99.99,,,-99.99,VWS V14.01,2013-02-24 22:10:00,
2013-02-24 17:15:00,28.0,20.7,30.02,West,260,0.0,4.6,74,-99.99,,,-99.99,VWS V14.01,2013-02-24 22:15:00,
2013-02-24 17:20:00,28.0,20.4,30.02,SW,214,0.0,0.0,73,-99.99,,,-99.99,VWS V14.01,2013-02-24 22:20:00,
2013-02-24 17:25:00,27.9,20.6,30.02,WNW,285,0.0,0.0,74,-99.99,,,-99.99,VWS V14.01,2013-02-24 22:25:00,
2013-02-24 17:30:00,27.9,20.7,30.02,NNW,328,0.0,0.0,74,-99.99,,,-99.99,VWS V14.01,2013-02-24 22:30:00,
2013-02-24 17:35:00,28.0,20.8,30.03,WNW,297,0.0,0.0,74,-99.99,,,-99.99,VWS V14.01,2013-02-24 22:35:00,
2013-02-24 17:40:00,27.9,20.8,30.03,WNW,302,3.2,4.4,74,-99.99,,,-99.99,VWS V14.01,2013-02-24 22:40:00,
2013-02-24 17:45:00,27.9,20.8,30.03,WNW,302,0.0,0.0,74,-99.99,,,-99.99,VWS V14.01,2013-02-24 22:45:00,
2013-02-24 17:50:00,27.7,20.2,30.03,South,191,6.0,7.5,73,-99.99,,,-99.99,VWS V14.01,2013-02-24 22:50:00,
2013-02-24 17:55:00,27.8,20.5,30.03,NW,318,0.0,0.0,74,-99.99,,,-99.99,VWS V14.01,2013-02-24 22:55:00,
2013-02-24 18:00:00,27.8,20.7,30.04,NW,318,0.0,0.0,74,-99.99,,,-99.99,VWS V14.01,2013-02-24 23:00:00,
2013-02-24 18:05:00,27.7,20.3,30.04,NW,318,0.0,0.0,73,-99.99,,,-99.99,VWS V14.01,2013-02-24 23:05:00,
2013-02-24 18:10:00,27.8,20.5,30.04,NW,318,0.0,0.0,74,-99.99,,,-99.99,VWS V14.01,2013-02-24 23:10:00,
2013-02-24 18:15:00,27.7,20.4,30.04,SW,222,0.0,0.0,74,-99.99,,,-99.99,VWS V14.01,2013-02-24 23:15:00,
2013-02-24 18:20:00,27.8,20.8,30.04,SW,222,0.0,0.0,74,-99.99,,,-99.99,VWS V14.01,2013-02-24 23:20:00,
2013-02-24 18:25:00,27.6,20.2,30.05,West,273,4.4,4.4,74,-99.99,,,-99.99,VWS V14.01,2013-02-24 23:25:00,
2013-02-24 18:30:00,27.6,20.3,30.05,NW,307,5.8,8.1,74,-99.99,,,-99.99,VWS V14.01,2013-02-24 23:30:00,
2013-02-24 18:35:00,27.4,19.9,30.05,West,280,0.0,3.0,73,-99.99,,,-99.99,VWS V14.01,2013-02-24 23:35:00,
2013-02-24 18:40:00,27.5,20.2,30.05,North,359,0.0,0.0,74,-99.99,,,-99.99,VWS V14.01,2013-02-24 23:40:00,
2013-02-24 18:45:00,27.5,20.4,30.05,WNW,302,3.3,5.2,74,-99.99,,,-99.99,VWS V14.01,2013-02-24 23:45:00,
2013-02-24 18:50:00,27.5,20.2,30.05,NW,318,0.0,0.0,74,-99.99,,,-99.99,VWS V14.01,2013-02-24 23:50:00,
2013-02-24 18:55:00,27.4,20.1,30.06,NW,318,0.0,0.0,74,-99.99,,,-99.99,VWS V14.01,2013-02-24 23:55:00,
2013-02-24 19:00:00,27.5,20.3,30.06,NNW,345,0.0,3.2,74,-99.99,,,-99.99,VWS V14.01,2013-02-25 00:00:00,
2013-02-24 19:05:00,27.6,20.5,30.07,NW,322,0.0,0.0,74,-99.99,,,-99.99,VWS V14.01,2013-02-25 00:05:00,
2013-02-24 19:10:00,27.5,20.5,30.07,WNW,301,0.0,0.0,74,-99.99,,,-99.99,VWS V14.01,2013-02-25 00:10:00,
2013-02-24 19:15:00,27.4,20.5,30.07,South,173,0.0,0.0,75,-99.99,,,-99.99,VWS V14.01,2013-02-25 00:15:00,
2013-02-24 19:20:00,27.5,20.4,30.07,South,173,0.0,0.0,74,-99.99,,,-99.99,VWS V14.01,2013-02-25 00:20:00,
2013-02-24 19:25:00,27.4,20.2,30.07,South,173,0.0,0.0,74,-99.99,,,-99.99,VWS V14.01,2013-02-25 00:25:00,
2013-02-24 19:30:00,27.4,20.3,30.08,NW,315,0.0,5.3,74,-99.99,,,-99.99,VWS V14.01,2013-02-25 00:30:00,
2013-02-24 19:35:00,27.5,20.6,30.08,NW,315,0.0,0.0,75,-99.99,,,-99.99,VWS V14.01,2013-02-25 00:35:00,
2013-02-24 19:40:00,27.6,20.7,30.08,NW,315,0.0,0.0,75,-99.99,,,-99.99,VWS V14.01,2013-02-25 00:40:00,
2013-02-24 19:45:00,27.6,20.7,30.08,NW,315,0.0,0.0,75,-99.99,,,-99.99,VWS V14.01,2013-02-25 00:45:00,
2013-02-24 19:50:00,27.6,20.5,30.08,SSW,200,0.0,5.5,74,-99.99,,,-99.99,VWS V14.01,2013-02-25 00:50:00,
2013-02-24 19:55:00,27.6,20.5,30.08,SSW,200,0.0,0.0,74,-99.99,,,-99.99,VWS V14.01,2013-02-25 00:55:00,
2013-02-24 20:00:00,27.6,20.6,30.08,WSW,252,0.0,0.0,75,-99.99,,,-99.99,VWS V14.01,2013-02-25 01:00:00,
2013-02-24 20:05:00,27.5,20.6,30.08,WSW,252,0.0,2.9,75,-99.99,,,-99.99,VWS V14.01,2013-02-25 01:05:00,
2013-02-24 20:10:00,27.4,20.6,30.09,WSW,252,0.0,0.0,75,-99.99,,,-99.99,VWS V14.01,2013-02-25 01:10:00,
2013-02-24 20:15:00,27.3,20.6,30.09,WNW,294,0.0,0.0,76,-99.99,,,-99.99,VWS V14.01,2013-02-25 01:15:00,
2013-02-24 20:20:00,27.4,20.7,30.09,WNW,294,0.0,0.0,75,-99.99,,,-99.99,VWS V14.01,2013-02-25 01:20:00,
2013-02-24 20:25:00,27.5,20.8,30.09,WNW,294,0.0,0.0,76,-99.99,,,-99.99,VWS V14.01,2013-02-25 01:25:00,
2013-02-24 20:30:00,27.4,20.8,30.09,WNW,294,0.0,2.0,76,-99.99,,,-99.99,VWS V14.01,2013-02-25 01:30:00,
2013-02-24 20:35:00,27.5,20.7,30.09,WNW,294,0.0,0.0,75,-99.99,,,-99.99,VWS V14.01,2013-02-25 01:35:00,
2013-02-24 20:40:00,27.5,20.8,30.09,WNW,294,0.0,0.0,76,-99.99,,,-99.99,VWS V14.01,2013-02-25 01:40:00,
2013-02-24 20:45:00,27.5,20.9,30.09,WNW,294,0.0,0.0,76,-99.99,,,-99.99,VWS V14.01,2013-02-25 01:45:00,
2013-02-24 20:50:00,27.5,20.9,30.09,WNW,294,0.0,0.0,76,-99.99,,,-99.99,VWS V14.01,2013-02-25 01:50:00,
2013-02-24 20:55:00,27.4,20.7,30.09,WNW,294,0.0,0.0,75,-99.99,,,-99.99,VWS V14.01,2013-02-25 01:55:00,
2013-02-24 21:00:00,27.4,20.6,30.09,WNW,294,0.0,0.0,75,-99.99,,,-99.99,VWS V14.01,2013-02-25 02:00:00,
2013-02-24 21:04:00,27.5,20.8,30.09,WNW,294,0.0,0.0,76,-99.99,,,-99.99,VWS V14.01,2013-02-25 02:04:00,
2013-02-24 21:09:00,27.6,20.9,30.09,WNW,294,0.0,0.0,75,-99.99,,,-99.99,VWS V14.01,2013-02-25 02:09:00,
2013-02-24 21:14:00,27.5,20.6,30.09,WNW,294,0.0,0.0,75,-99.99,,,-99.99,VWS V14.01,2013-02-25 02:14:00,
2013-02-24 21:19:00,27.5,20.6,30.09,WNW,294,0.0,0.0,75,-99.99,,,-99.99,VWS V14.01,2013-02-25 02:19:00,
2013-02-24 21:24:00,27.6,20.8,30.09,WNW,294,0.0,0.0,75,-99.99,,,-99.99,VWS V14.01,2013-02-25 02:24:00,
2013-02-24 21:29:00,27.6,20.9,30.09,WNW,294,0.0,0.0,76,-99.99,,,-99.99,VWS V14.01,2013-02-25 02:29:00,
2013-02-24 21:34:00,27.6,21.0,30.09,WNW,294,0.0,0.0,76,-99.99,,,-99.99,VWS V14.01,2013-02-25 02:34:00,
2013-02-24 21:39:00,27.6,21.1,30.09,WNW,294,0.0,0.0,76,-99.99,,,-99.99,VWS V14.01,2013-02-25 02:39:00,
2013-02-24 21:44:00,27.6,21.0,30.09,WNW,294,0.0,0.0,76,-99.99,,,-99.99,VWS V14.01,2013-02-25 02:44:00,
2013-02-24 21:49:00,27.6,21.2,30.09,WNW,294,0.0,0.0,77,-99.99,,,-99.99,VWS V14.01,2013-02-25 02:49:00,
2013-02-24 21:54:00,27.5,21.2,30.09,WNW,294,0.0,0.0,77,-99.99,,,-99.99,VWS V14.01,2013-02-25 02:54:00,